Sincerity Ace — 3FFD7 — position and weather

sailwx.info

Track history (hours):
 
Tides and Currents Weather Stations Pressure Air Temp Water Temp Dewpoint Dewpoint Depression Visibility Wind Speed Wind Dir Waves Ship Positions

Sincerity Ace

Last reported at 2016-Nov-21 02:33 UTC. Time now 2016-Dec-04 20:30 UTC.
Position N 33°38' W 118°19'.
Warning: this ship's position is 13 days out of date.

Length 200 m; draft 8.5 m.

Type: Cargo ship. MMSI: 351690000.

Date/timePositionNaut miles runAvg speedWind from/ knotsBaromVisibWave heightAir tempDewpointWater temp
2016-Nov-21 02:33N 33°38' W 118°19'8 0.9
2016-Nov-20 17:29N 33°46' W 118°15'0 0.0
2016-Nov-20 16:32N 33°46' W 118°15'0 0.0
2016-Nov-20 14:32N 33°46' W 118°15'0 0.0
2016-Nov-20 13:32N 33°46' W 118°15'0 0.0
2016-Nov-20 12:32N 33°46' W 118°15'1 0.2
2016-Nov-20 09:33N 33°45' W 118°16'7 6.6
2016-Nov-20 08:33N 33°39' W 118°13'8 7.5
2016-Nov-20 07:33N 33°33' W 118°09'9 8.9
2016-Nov-20 06:33N 33°24' W 118°05'10 9.6
2016-Nov-20 05:33N 33°16' W 117°59'9 9.4
2016-Nov-20 04:33N 33°09' W 117°52'10 9.5
2016-Nov-20 03:33N 33°02' W 117°44'2110.6
2016-Nov-20 01:33N 32°46' W 117°27'12 6.2
2016-Nov-19 23:33N 32°43' W 117°13'6 5.8
2016-Nov-19 22:32N 32°39' W 117°07'0 0.0
2016-Nov-19 20:32N 32°39' W 117°07'0 0.0
2016-Nov-19 19:32N 32°39' W 117°07'0 0.0
2016-Nov-19 17:32N 32°39' W 117°07'0 0.0
2016-Nov-19 16:32N 32°39' W 117°07'2 1.2
2016-Nov-19 14:33N 32°41' W 117°09'16 5.5
2016-Nov-19 11:33N 32°38' W 117°28'2110.4
2016-Nov-19 09:33N 32°53' W 117°46'2010.1
2016-Nov-19 07:33N 33°08' W 118°01'2010.2
2016-Nov-19 05:33N 33°27' W 118°10'9 9.4
2016-Nov-19 04:33N 33°36' W 118°14'10 9.8
2016-Nov-19 03:33N 33°39' W 118°26'1010.3
2016-Nov-19 02:33N 33°43' W 118°37'1110.8
2016-Nov-19 01:33N 33°49' W 118°48'1110.8
2016-Nov-19 00:33N 33°54' W 118°59'1010.2
2016-Nov-18 23:33N 33°60' W 119°10'3612.0
2016-Nov-18 20:31N 34°10' W 119°51'3611.7
2016-Nov-18 17:27N 34°20' W 120°34'11114.1
2016-Nov-18 09:34N 35°47' W 121°58'3316.3
2016-Nov-18 07:33N 36°16' W 122°17'3316.5
2016-Nov-18 05:33N 36°46' W 122°32'1717.1
2016-Nov-18 04:32N 37°03' W 122°40'4414.8
2016-Nov-18 01:33N 37°47' W 122°36'1212.4
2016-Nov-18 00:33N 37°55' W 122°25'3 2.5
2016-Nov-17 23:31N 37°54' W 122°22'0 0.0
2016-Nov-17 22:31N 37°54' W 122°22'0 0.0
2016-Nov-17 21:31N 37°54' W 122°22'0 0.0
2016-Nov-17 19:31N 37°54' W 122°22'0 0.0
2016-Nov-17 18:31N 37°54' W 122°22'1 0.1
2016-Nov-17 14:33N 37°54' W 122°23'5 5.1
2016-Nov-17 13:33N 37°50' W 122°27'1111.0
2016-Nov-17 12:33N 37°46' W 122°39'1111.2
2016-Nov-17 11:33N 37°49' W 122°53'5317.6
2016-Nov-17 08:34N 38°27' W 123°39'39016.8
2016-Nov-16 09:19N 44°56' W 124°25'1517.1
2016-Nov-16 08:27N 45°10' W 124°22'1516.7
2016-Nov-16 07:34N 45°25' W 124°19'1616.4
2016-Nov-16 06:34N 45°41' W 124°16'3015.0
2016-Nov-16 04:34N 46°11' W 124°09'9 8.9
2016-Nov-16 03:33N 46°12' W 123°56'1312.6
2016-Nov-16 02:33N 46°16' W 123°39'1312.7
2016-Nov-16 01:33N 46°09' W 123°23'4010.0
2016-Nov-15 21:33N 45°39' W 122°45'1 0.4
2016-Nov-15 19:31N 45°38' W 122°44'0 0.0
2016-Nov-15 18:31N 45°38' W 122°44'0 0.0
2016-Nov-15 13:28N 45°38' W 122°44'0 0.0
2016-Nov-15 12:28N 45°38' W 122°44'0 0.0
2016-Nov-15 11:28N 45°38' W 122°44'0 0.0
2016-Nov-15 10:31N 45°38' W 122°44'0 0.0
2016-Nov-15 07:31N 45°38' W 122°44'0 0.0
2016-Nov-15 06:28N 45°38' W 122°44'0 0.0
2016-Nov-15 05:52N 45°38' W 122°44'0 0.0
2016-Nov-15 03:25N 45°38' W 122°44'0 0.0
2016-Nov-15 02:31N 45°38' W 122°44'19 9.8
2016-Nov-15 00:33N 45°57' W 122°48'1012.1
2016-Nov-14 23:43N 46°06' W 122°56'4711.4
2016-Nov-14 19:33N 46°15' W 124°03'20 9.8
2016-Nov-14 17:33N 46°28' W 124°24'1616.0
2016-Nov-14 16:33N 46°43' W 124°34'1615.8
2016-Nov-14 15:33N 46°57' W 124°44'6715.4
2016-Nov-14 11:12N 47°60' W 125°20'3312.6
2016-Nov-14 08:34N 48°31' W 125°03'3912.9
2016-Nov-14 05:34N 48°20' W 124°07'7615.1
2016-Nov-14 00:34N 47°46' W 122°26'1817.9
2016-Nov-13 23:34N 47°28' W 122°24'1111.3
2016-Nov-13 22:33N 47°17' W 122°25'2 0.5
2016-Nov-13 19:29N 47°16' W 122°23'0 0.0
2016-Nov-13 18:29N 47°16' W 122°23'0 0.0
2016-Nov-13 17:32N 47°16' W 122°23'2 0.9
2016-Nov-13 15:33N 47°17' W 122°25'2412.2
2016-Nov-13 13:33N 47°41' W 122°28'4314.3
2016-Nov-13 10:33N 48°12' W 123°13'3115.0
2016-Nov-13 08:31N 48°15' W 123°59'5117.1
2016-Nov-13 05:33N 48°30' W 125°12'3015.1
2016-Nov-13 03:33N 48°49' W 125°48'6315.8
2016-Nov-12 23:33N 49°28' W 127°04'  
Track history (hours):
 
Tides and Currents Weather Stations Pressure Air Temp Water Temp Dewpoint Dewpoint Depression Visibility Wind Speed Wind Dir Waves Ship Positions

Sincerity Ace

Last reported at 2016-Nov-21 02:33 UTC. Time now 2016-Dec-04 20:30 UTC.
Position N 33°38' W 118°19'.
Warning: this ship's position is 13 days out of date.

Length 200 m; draft 8.5 m.

Type: Cargo ship. MMSI: 351690000.

Date/timePositionNaut miles runAvg speedWind from/ knotsBaromVisibWave heightAir tempDewpointWater temp
2016-Nov-21 02:33N 33°38' W 118°19'8 0.9
2016-Nov-20 17:29N 33°46' W 118°15'0 0.0
2016-Nov-20 16:32N 33°46' W 118°15'0 0.0
2016-Nov-20 14:32N 33°46' W 118°15'0 0.0
2016-Nov-20 13:32N 33°46' W 118°15'0 0.0
2016-Nov-20 12:32N 33°46' W 118°15'1 0.2
2016-Nov-20 09:33N 33°45' W 118°16'7 6.6
2016-Nov-20 08:33N 33°39' W 118°13'8 7.5
2016-Nov-20 07:33N 33°33' W 118°09'9 8.9
2016-Nov-20 06:33N 33°24' W 118°05'10 9.6
2016-Nov-20 05:33N 33°16' W 117°59'9 9.4
2016-Nov-20 04:33N 33°09' W 117°52'10 9.5
2016-Nov-20 03:33N 33°02' W 117°44'2110.6
2016-Nov-20 01:33N 32°46' W 117°27'12 6.2
2016-Nov-19 23:33N 32°43' W 117°13'6 5.8
2016-Nov-19 22:32N 32°39' W 117°07'0 0.0
2016-Nov-19 20:32N 32°39' W 117°07'0 0.0
2016-Nov-19 19:32N 32°39' W 117°07'0 0.0
2016-Nov-19 17:32N 32°39' W 117°07'0 0.0
2016-Nov-19 16:32N 32°39' W 117°07'2 1.2
2016-Nov-19 14:33N 32°41' W 117°09'16 5.5
2016-Nov-19 11:33N 32°38' W 117°28'2110.4
2016-Nov-19 09:33N 32°53' W 117°46'2010.1
2016-Nov-19 07:33N 33°08' W 118°01'2010.2
2016-Nov-19 05:33N 33°27' W 118°10'9 9.4
2016-Nov-19 04:33N 33°36' W 118°14'10 9.8
2016-Nov-19 03:33N 33°39' W 118°26'1010.3
2016-Nov-19 02:33N 33°43' W 118°37'1110.8
2016-Nov-19 01:33N 33°49' W 118°48'1110.8
2016-Nov-19 00:33N 33°54' W 118°59'1010.2
2016-Nov-18 23:33N 33°60' W 119°10'3612.0
2016-Nov-18 20:31N 34°10' W 119°51'3611.7
2016-Nov-18 17:27N 34°20' W 120°34'11114.1
2016-Nov-18 09:34N 35°47' W 121°58'3316.3
2016-Nov-18 07:33N 36°16' W 122°17'3316.5
2016-Nov-18 05:33N 36°46' W 122°32'1717.1
2016-Nov-18 04:32N 37°03' W 122°40'4414.8
2016-Nov-18 01:33N 37°47' W 122°36'1212.4
2016-Nov-18 00:33N 37°55' W 122°25'3 2.5
2016-Nov-17 23:31N 37°54' W 122°22'0 0.0
2016-Nov-17 22:31N 37°54' W 122°22'0 0.0
2016-Nov-17 21:31N 37°54' W 122°22'0 0.0
2016-Nov-17 19:31N 37°54' W 122°22'0 0.0
2016-Nov-17 18:31N 37°54' W 122°22'1 0.1
2016-Nov-17 14:33N 37°54' W 122°23'5 5.1
2016-Nov-17 13:33N 37°50' W 122°27'1111.0
2016-Nov-17 12:33N 37°46' W 122°39'1111.2
2016-Nov-17 11:33N 37°49' W 122°53'5317.6
2016-Nov-17 08:34N 38°27' W 123°39'39016.8
2016-Nov-16 09:19N 44°56' W 124°25'1517.1
2016-Nov-16 08:27N 45°10' W 124°22'1516.7
2016-Nov-16 07:34N 45°25' W 124°19'1616.4
2016-Nov-16 06:34N 45°41' W 124°16'3015.0
2016-Nov-16 04:34N 46°11' W 124°09'9 8.9
2016-Nov-16 03:33N 46°12' W 123°56'1312.6
2016-Nov-16 02:33N 46°16' W 123°39'1312.7
2016-Nov-16 01:33N 46°09' W 123°23'4010.0
2016-Nov-15 21:33N 45°39' W 122°45'1 0.4
2016-Nov-15 19:31N 45°38' W 122°44'0 0.0
2016-Nov-15 18:31N 45°38' W 122°44'0 0.0
2016-Nov-15 13:28N 45°38' W 122°44'0 0.0
2016-Nov-15 12:28N 45°38' W 122°44'0 0.0
2016-Nov-15 11:28N 45°38' W 122°44'0 0.0
2016-Nov-15 10:31N 45°38' W 122°44'0 0.0
2016-Nov-15 07:31N 45°38' W 122°44'0 0.0
2016-Nov-15 06:28N 45°38' W 122°44'0 0.0
2016-Nov-15 05:52N 45°38' W 122°44'0 0.0
2016-Nov-15 03:25N 45°38' W 122°44'0 0.0
2016-Nov-15 02:31N 45°38' W 122°44'19 9.8
2016-Nov-15 00:33N 45°57' W 122°48'1012.1
2016-Nov-14 23:43N 46°06' W 122°56'4711.4
2016-Nov-14 19:33N 46°15' W 124°03'20 9.8
2016-Nov-14 17:33N 46°28' W 124°24'1616.0
2016-Nov-14 16:33N 46°43' W 124°34'1615.8
2016-Nov-14 15:33N 46°57' W 124°44'6715.4
2016-Nov-14 11:12N 47°60' W 125°20'3312.6
2016-Nov-14 08:34N 48°31' W 125°03'3912.9
2016-Nov-14 05:34N 48°20' W 124°07'7615.1
2016-Nov-14 00:34N 47°46' W 122°26'1817.9
2016-Nov-13 23:34N 47°28' W 122°24'1111.3
2016-Nov-13 22:33N 47°17' W 122°25'2 0.5
2016-Nov-13 19:29N 47°16' W 122°23'0 0.0
2016-Nov-13 18:29N 47°16' W 122°23'0 0.0
2016-Nov-13 17:32N 47°16' W 122°23'2 0.9
2016-Nov-13 15:33N 47°17' W 122°25'2412.2
2016-Nov-13 13:33N 47°41' W 122°28'4314.3
2016-Nov-13 10:33N 48°12' W 123°13'3115.0
2016-Nov-13 08:31N 48°15' W 123°59'5117.1
2016-Nov-13 05:33N 48°30' W 125°12'3015.1
2016-Nov-13 03:33N 48°49' W 125°48'6315.8
2016-Nov-12 23:33N 49°28' W 127°04'  

Dump ship's entire track history